Thermal, CA

9:57 AM PDT on September 02, 2014 (GMT -0700)
Desert Resorts Regional | Change Station
CLOSE
Current Station
Airport
Location: Thermal,
Elevation: -115 ft
Nearby Weather Stations

Elev -115 ft 33.63 °N, 116.16 °W | Updated 5 minutes ago

Clear
Clear
95 °F
Feels Like 95 °F
N
4
Wind Variable Wind from NW

Today
High -- | Low -- °F
--% Chance of Precip.
Yesterday
High -- | Low -- °F
Precip. -- in
6:19 AM 7:08 PM
First Quarter, 53% visible
Pressure 29.73 in
Visibility 10.0 miles
Clouds Clear
Dew Point 42 °F
Humidity 16%
Rainfall 0.00 in
Snow Depth Not available.
UV 6 out of 12
Pollen 7.80 out of 12
Ozone Good
Flu Activity Not available.
METAR KTRM 021652Z AUTO 32003KT 10SM CLR 35/06 A2971 RMK AO2 SLP065 T03500056 TSNO

More Conditions Fewer Conditions

Pressure 29.73 in
Visibility 10.0 miles
Clouds Clear
Dew Point 42 °F
Humidity 16%
Rainfall 0.00 in
Snow Depth Not available.
UV 6 out of 12
Pollen 7.80 out of 12
Ozone Good
Flu Activity Not available.
METAR KTRM 021652Z AUTO 32003KT 10SM CLR 35/06 A2971 RMK AO2 SLP065 T03500056 TSNO

More Conditions Fewer Conditions

10-Day Weather Forecast

Almanac

Astronomy

Sep. 02, 2014 Rise Set
Actual Time 6:19 AM PDT 7:08 PM PDT
Civil Twilight 5:53 AM PDT 7:33 PM PDT
Nautical Twilight 5:23 AM PDT 8:03 PM PDT
Astronomical Twilight 4:53 AM PDT 8:34 PM PDT
Moon 1:47 PM PDT No Moon Set
Length of Visible Light 13h 40m
Length of Day
12h 49m
Tomorrow will be 1m 59s shorter.
First Quarter, 53% of the Moon is Illuminated
Today
First Quarter
Sep 8
Full
Sep 15
Last Quarter
Sep 24
New
Oct 1
First Quarter

Today's Extremes

State Highs State Lows

Community

WunderPhotos

Upload Photos

1,749,716 photos uploaded!

WunderBlogs® & News

Nearby

Air Quality

  Air Quality AQ Index Pollutant
Yesterday Moderate
OZONE
Yesterday Good
PM10
Current Good
OZONE
Tuesday Moderate
OZONE
Tuesday Good
PM10
Tuesday Good
CO
Tuesday Good
NO2

Snow Depth

Station Depth Elevation
Summit Meadow 1 in 9122 ft
Blue Lakes 0 in 8000 ft
Forestdale Creek 0 in 8029 ft
Hagan's Meadow 0 in 8000 ft
CSS Lab 2 in 6900 ft

Earthquake Activity

City Distance Mag. Time & Date
Holtville, California 74 miles 2.5 5:43 PM PDT
2014-09-01
Holtville, California 76 miles 2.5 5:26 PM PDT
2014-09-01
Minimum magnitude displayed is 2.5.

Coastal Water Temperatures

Place Temperature
No Stations Reporting

Nearby Weather Stations